METAR Data
IDs: Format: Raw Decoded Include TAF

Data at: 1413 UTC 27 Nov 2021

EPPO 271400Z 13006KT 4000 BR OVC005 01/M00 Q0995